sensor_id;sensor_type;location;lat;lon;timestamp;pressure;altitude;pressure_sealevel;temperature;humidity
73106;BME280;61559;50.476;15.588;2024-02-21T00:02:16;98315.13;;;5.00;90.97
73106;BME280;61559;50.476;15.588;2024-02-21T00:04:45;98310.64;;;4.98;91.05
73106;BME280;61559;50.476;15.588;2024-02-21T00:07:15;98313.27;;;4.93;91.19
73106;BME280;61559;50.476;15.588;2024-02-21T00:09:47;98310.44;;;4.89;91.36
73106;BME280;61559;50.476;15.588;2024-02-21T00:12:18;98309.83;;;4.88;91.48
73106;BME280;61559;50.476;15.588;2024-02-21T00:14:48;98311.05;;;4.87;91.50
73106;BME280;61559;50.476;15.588;2024-02-21T00:17:19;98304.95;;;4.84;91.57
73106;BME280;61559;50.476;15.588;2024-02-21T00:19:49;98303.32;;;4.83;91.71
73106;BME280;61559;50.476;15.588;2024-02-21T00:22:20;98299.02;;;4.80;91.71
73106;BME280;61559;50.476;15.588;2024-02-21T00:24:49;98298.92;;;4.79;91.80
73106;BME280;61559;50.476;15.588;2024-02-21T00:27:20;98296.71;;;4.78;92.07
73106;BME280;61559;50.476;15.588;2024-02-21T00:29:51;98294.36;;;4.78;91.94
73106;BME280;61559;50.476;15.588;2024-02-21T00:32:22;98292.44;;;4.79;92.02
73106;BME280;61559;50.476;15.588;2024-02-21T00:34:53;98291.82;;;4.81;92.07
73106;BME280;61559;50.476;15.588;2024-02-21T00:37:23;98286.94;;;4.82;91.97
73106;BME280;61559;50.476;15.588;2024-02-21T00:39:55;98285.70;;;4.80;92.08
73106;BME280;61559;50.476;15.588;2024-02-21T00:42:27;98282.48;;;4.81;92.16
73106;BME280;61559;50.476;15.588;2024-02-21T00:44:58;98282.13;;;4.80;92.12
73106;BME280;61559;50.476;15.588;2024-02-21T00:47:31;98280.75;;;4.80;92.17
73106;BME280;61559;50.476;15.588;2024-02-21T00:50:02;98276.77;;;4.79;92.23
73106;BME280;61559;50.476;15.588;2024-02-21T00:52:36;98276.71;;;4.79;92.27
73106;BME280;61559;50.476;15.588;2024-02-21T00:55:07;98272.88;;;4.79;92.20
73106;BME280;61559;50.476;15.588;2024-02-21T00:57:39;98269.45;;;4.77;92.22
73106;BME280;61559;50.476;15.588;2024-02-21T01:00:12;98270.67;;;4.77;92.28
73106;BME280;61559;50.476;15.588;2024-02-21T01:02:43;98272.36;;;4.77;92.23
73106;BME280;61559;50.476;15.588;2024-02-21T01:05:12;98267.56;;;4.77;92.23
73106;BME280;61559;50.476;15.588;2024-02-21T01:07:44;98263.59;;;4.75;92.29
73106;BME280;61559;50.476;15.588;2024-02-21T01:10:15;98261.08;;;4.75;92.26
73106;BME280;61559;50.476;15.588;2024-02-21T01:12:47;98256.52;;;4.74;92.23
73106;BME280;61559;50.476;15.588;2024-02-21T01:15:19;98251.17;;;4.72;92.20
73106;BME280;61559;50.476;15.588;2024-02-21T01:17:50;98251.67;;;4.71;92.26
73106;BME280;61559;50.476;15.588;2024-02-21T01:20:24;98246.09;;;4.68;92.30
73106;BME280;61559;50.476;15.588;2024-02-21T01:22:55;98244.71;;;4.65;92.30
73106;BME280;61559;50.476;15.588;2024-02-21T01:25:28;98244.65;;;4.64;92.35
73106;BME280;61559;50.476;15.588;2024-02-21T01:27:59;98242.39;;;4.60;92.32
73106;BME280;61559;50.476;15.588;2024-02-21T01:30:30;98236.46;;;4.58;92.49
73106;BME280;61559;50.476;15.588;2024-02-21T01:33:01;98234.36;;;4.57;92.50
73106;BME280;61559;50.476;15.588;2024-02-21T01:35:34;98230.74;;;4.57;92.47
73106;BME280;61559;50.476;15.588;2024-02-21T01:38:05;98223.49;;;4.56;92.53
73106;BME280;61559;50.476;15.588;2024-02-21T01:40:37;98216.45;;;4.56;92.44
73106;BME280;61559;50.476;15.588;2024-02-21T01:43:17;98215.02;;;4.53;92.45
73106;BME280;61559;50.476;15.588;2024-02-21T01:45:50;98213.41;;;4.50;92.57
73106;BME280;61559;50.476;15.588;2024-02-21T01:48:23;98214.02;;;4.50;92.77
73106;BME280;61559;50.476;15.588;2024-02-21T01:50:56;98212.23;;;4.50;92.76
73106;BME280;61559;50.476;15.588;2024-02-21T01:53:31;98209.02;;;4.49;92.73
73106;BME280;61559;50.476;15.588;2024-02-21T01:56:05;98205.77;;;4.49;92.64
73106;BME280;61559;50.476;15.588;2024-02-21T01:58:38;98200.20;;;4.48;92.70
73106;BME280;61559;50.476;15.588;2024-02-21T02:01:10;98202.90;;;4.48;92.71
73106;BME280;61559;50.476;15.588;2024-02-21T02:03:43;98195.96;;;4.48;92.75
73106;BME280;61559;50.476;15.588;2024-02-21T02:06:16;98192.75;;;4.48;92.73
73106;BME280;61559;50.476;15.588;2024-02-21T02:08:47;98189.63;;;4.48;92.71
73106;BME280;61559;50.476;15.588;2024-02-21T02:11:18;98187.60;;;4.49;92.71
73106;BME280;61559;50.476;15.588;2024-02-21T02:13:48;98192.65;;;4.49;92.69
73106;BME280;61559;50.476;15.588;2024-02-21T02:16:19;98191.05;;;4.48;92.69
73106;BME280;61559;50.476;15.588;2024-02-21T02:18:50;98189.28;;;4.48;92.77
73106;BME280;61559;50.476;15.588;2024-02-21T02:21:29;98186.88;;;4.46;92.68
73106;BME280;61559;50.476;15.588;2024-02-21T02:24:00;98182.23;;;4.45;92.69
73106;BME280;61559;50.476;15.588;2024-02-21T02:26:32;98176.77;;;4.45;92.66
73106;BME280;61559;50.476;15.588;2024-02-21T02:29:04;98174.67;;;4.43;92.52
73106;BME280;61559;50.476;15.588;2024-02-21T02:31:35;98171.25;;;4.41;92.54
73106;BME280;61559;50.476;15.588;2024-02-21T02:34:07;98175.33;;;4.40;92.38
73106;BME280;61559;50.476;15.588;2024-02-21T02:36:38;98176.54;;;4.38;92.53
73106;BME280;61559;50.476;15.588;2024-02-21T02:39:09;98180.05;;;4.37;92.45
73106;BME280;61559;50.476;15.588;2024-02-21T02:41:40;98177.80;;;4.36;92.50
73106;BME280;61559;50.476;15.588;2024-02-21T02:44:10;98175.00;;;4.33;92.36
73106;BME280;61559;50.476;15.588;2024-02-21T02:46:43;98169.49;;;4.29;92.45
73106;BME280;61559;50.476;15.588;2024-02-21T02:49:14;98167.14;;;4.28;92.56
73106;BME280;61559;50.476;15.588;2024-02-21T02:51:44;98168.37;;;4.28;92.53
73106;BME280;61559;50.476;15.588;2024-02-21T02:54:15;98161.63;;;4.26;92.68
73106;BME280;61559;50.476;15.588;2024-02-21T02:56:46;98159.99;;;4.25;92.64
73106;BME280;61559;50.476;15.588;2024-02-21T02:59:18;98161.26;;;4.23;92.58
73106;BME280;61559;50.476;15.588;2024-02-21T03:01:47;98159.15;;;4.20;92.66
73106;BME280;61559;50.476;15.588;2024-02-21T03:04:19;98153.20;;;4.15;92.77
73106;BME280;61559;50.476;15.588;2024-02-21T03:06:50;98151.84;;;4.15;92.91
73106;BME280;61559;50.476;15.588;2024-02-21T03:09:19;98150.30;;;4.13;92.83
73106;BME280;61559;50.476;15.588;2024-02-21T03:11:50;98146.05;;;4.10;92.81
73106;BME280;61559;50.476;15.588;2024-02-21T03:14:22;98142.38;;;4.09;92.80
73106;BME280;61559;50.476;15.588;2024-02-21T03:16:54;98142.12;;;4.07;92.82
73106;BME280;61559;50.476;15.588;2024-02-21T03:19:25;98138.84;;;4.07;92.86
73106;BME280;61559;50.476;15.588;2024-02-21T03:21:57;98139.65;;;4.05;92.84
73106;BME280;61559;50.476;15.588;2024-02-21T03:24:32;98136.38;;;4.04;92.87
73106;BME280;61559;50.476;15.588;2024-02-21T03:27:04;98136.73;;;4.02;92.74
73106;BME280;61559;50.476;15.588;2024-02-21T03:29:35;98139.33;;;4.02;92.96
73106;BME280;61559;50.476;15.588;2024-02-21T03:32:06;98142.02;;;4.02;92.97
73106;BME280;61559;50.476;15.588;2024-02-21T03:34:37;98147.17;;;4.01;92.95
73106;BME280;61559;50.476;15.588;2024-02-21T03:37:10;98142.02;;;4.01;92.98
73106;BME280;61559;50.476;15.588;2024-02-21T03:39:41;98143.77;;;4.00;92.96
73106;BME280;61559;50.476;15.588;2024-02-21T03:42:13;98141.06;;;4.01;93.09
73106;BME280;61559;50.476;15.588;2024-02-21T03:44:44;98138.77;;;4.02;93.09
73106;BME280;61559;50.476;15.588;2024-02-21T03:47:16;98141.61;;;4.01;93.04
73106;BME280;61559;50.476;15.588;2024-02-21T03:49:47;98142.63;;;3.99;93.00
73106;BME280;61559;50.476;15.588;2024-02-21T03:52:18;98139.97;;;3.96;93.12
73106;BME280;61559;50.476;15.588;2024-02-21T03:54:50;98135.16;;;3.94;93.22
73106;BME280;61559;50.476;15.588;2024-02-21T03:57:21;98131.50;;;3.95;93.38
73106;BME280;61559;50.476;15.588;2024-02-21T03:59:52;98133.65;;;3.95;93.47
73106;BME280;61559;50.476;15.588;2024-02-21T04:02:23;98138.39;;;3.98;93.53
73106;BME280;61559;50.476;15.588;2024-02-21T04:04:54;98136.06;;;4.00;93.60
73106;BME280;61559;50.476;15.588;2024-02-21T04:07:26;98130.05;;;4.01;93.51
73106;BME280;61559;50.476;15.588;2024-02-21T04:09:58;98125.16;;;4.03;93.41
73106;BME280;61559;50.476;15.588;2024-02-21T04:12:30;98126.09;;;4.05;93.47
73106;BME280;61559;50.476;15.588;2024-02-21T04:15:01;98122.79;;;4.06;93.39
73106;BME280;61559;50.476;15.588;2024-02-21T04:17:33;98121.27;;;4.08;93.41
73106;BME280;61559;50.476;15.588;2024-02-21T04:20:05;98121.02;;;4.10;93.50
73106;BME280;61559;50.476;15.588;2024-02-21T04:22:38;98115.42;;;4.11;93.39
73106;BME280;61559;50.476;15.588;2024-02-21T04:25:10;98113.79;;;4.11;93.49
73106;BME280;61559;50.476;15.588;2024-02-21T04:27:41;98113.84;;;4.12;93.38
73106;BME280;61559;50.476;15.588;2024-02-21T04:30:13;98113.89;;;4.13;93.38
73106;BME280;61559;50.476;15.588;2024-02-21T04:32:45;98115.38;;;4.14;93.42
73106;BME280;61559;50.476;15.588;2024-02-21T04:35:16;98113.23;;;4.15;93.56
73106;BME280;61559;50.476;15.588;2024-02-21T04:37:48;98113.86;;;4.16;93.62
73106;BME280;61559;50.476;15.588;2024-02-21T04:40:20;98110.54;;;4.15;93.51
73106;BME280;61559;50.476;15.588;2024-02-21T04:42:51;98105.29;;;4.15;93.43
73106;BME280;61559;50.476;15.588;2024-02-21T04:45:21;98104.73;;;4.16;93.41
73106;BME280;61559;50.476;15.588;2024-02-21T04:47:52;98104.22;;;4.15;93.50
73106;BME280;61559;50.476;15.588;2024-02-21T04:50:23;98099.32;;;4.14;93.46
73106;BME280;61559;50.476;15.588;2024-02-21T04:52:54;98100.39;;;4.14;93.44
73106;BME280;61559;50.476;15.588;2024-02-21T04:55:24;98100.95;;;4.14;93.35
73106;BME280;61559;50.476;15.588;2024-02-21T04:57:55;98094.88;;;4.11;93.30
73106;BME280;61559;50.476;15.588;2024-02-21T05:00:27;98090.84;;;4.09;93.12
73106;BME280;61559;50.476;15.588;2024-02-21T05:02:58;98088.95;;;4.08;93.15
73106;BME280;61559;50.476;15.588;2024-02-21T05:05:31;98087.46;;;4.06;93.09
73106;BME280;61559;50.476;15.588;2024-02-21T05:08:03;98085.98;;;4.05;93.07
73106;BME280;61559;50.476;15.588;2024-02-21T05:10:34;98085.15;;;4.02;93.11
73106;BME280;61559;50.476;15.588;2024-02-21T05:13:04;98084.23;;;4.01;93.12
73106;BME280;61559;50.476;15.588;2024-02-21T05:15:35;98083.49;;;3.95;92.96
73106;BME280;61559;50.476;15.588;2024-02-21T05:18:05;98080.67;;;3.91;92.93
73106;BME280;61559;50.476;15.588;2024-02-21T05:20:37;98080.49;;;3.87;92.95
73106;BME280;61559;50.476;15.588;2024-02-21T05:23:08;98078.23;;;3.83;92.83
73106;BME280;61559;50.476;15.588;2024-02-21T05:25:40;98083.68;;;3.81;92.86
73106;BME280;61559;50.476;15.588;2024-02-21T05:28:11;98081.27;;;3.79;92.81
73106;BME280;61559;50.476;15.588;2024-02-21T05:30:40;98078.30;;;3.77;92.75
73106;BME280;61559;50.476;15.588;2024-02-21T05:33:12;98081.08;;;3.72;92.73
73106;BME280;61559;50.476;15.588;2024-02-21T05:35:52;98082.19;;;3.71;92.90
73106;BME280;61559;50.476;15.588;2024-02-21T05:38:23;98082.19;;;3.69;93.10
73106;BME280;61559;50.476;15.588;2024-02-21T05:40:53;98080.45;;;3.69;93.10
73106;BME280;61559;50.476;15.588;2024-02-21T05:43:42;98077.89;;;3.67;93.18
73106;BME280;61559;50.476;15.588;2024-02-21T05:46:13;98078.66;;;3.66;93.20
73106;BME280;61559;50.476;15.588;2024-02-21T05:48:44;98079.73;;;3.67;93.33
73106;BME280;61559;50.476;15.588;2024-02-21T05:51:17;98076.69;;;3.68;93.31
73106;BME280;61559;50.476;15.588;2024-02-21T05:53:48;98074.14;;;3.68;93.31
73106;BME280;61559;50.476;15.588;2024-02-21T05:56:18;98074.86;;;3.70;93.46
73106;BME280;61559;50.476;15.588;2024-02-21T05:58:49;98080.91;;;3.68;93.51
73106;BME280;61559;50.476;15.588;2024-02-21T06:01:20;98078.93;;;3.69;93.43
73106;BME280;61559;50.476;15.588;2024-02-21T06:03:51;98077.96;;;3.69;93.45
73106;BME280;61559;50.476;15.588;2024-02-21T06:06:22;98075.11;;;3.70;93.43
73106;BME280;61559;50.476;15.588;2024-02-21T06:08:54;98077.77;;;3.70;93.55
73106;BME280;61559;50.476;15.588;2024-02-21T06:11:25;98077.81;;;3.71;93.57
73106;BME280;61559;50.476;15.588;2024-02-21T06:13:55;98075.73;;;3.71;93.52
73106;BME280;61559;50.476;15.588;2024-02-21T06:16:27;98075.02;;;3.70;93.48
73106;BME280;61559;50.476;15.588;2024-02-21T06:18:58;98077.45;;;3.70;93.39
73106;BME280;61559;50.476;15.588;2024-02-21T06:21:31;98074.45;;;3.71;93.45
73106;BME280;61559;50.476;15.588;2024-02-21T06:24:02;98071.30;;;3.72;93.46
73106;BME280;61559;50.476;15.588;2024-02-21T06:26:33;98073.20;;;3.73;93.55
73106;BME280;61559;50.476;15.588;2024-02-21T06:29:04;98072.80;;;3.76;93.41
73106;BME280;61559;50.476;15.588;2024-02-21T06:31:55;98072.30;;;3.78;93.48
73106;BME280;61559;50.476;15.588;2024-02-21T06:34:24;98071.34;;;3.80;93.41
73106;BME280;61559;50.476;15.588;2024-02-21T06:36:59;98075.52;;;3.80;93.53
73106;BME280;61559;50.476;15.588;2024-02-21T06:39:30;98075.13;;;3.82;93.64
73106;BME280;61559;50.476;15.588;2024-02-21T06:42:18;98072.55;;;3.86;93.74
73106;BME280;61559;50.476;15.588;2024-02-21T06:44:49;98068.95;;;3.91;93.90
73106;BME280;61559;50.476;15.588;2024-02-21T06:47:20;98070.65;;;3.95;93.91
73106;BME280;61559;50.476;15.588;2024-02-21T06:49:52;98070.11;;;4.00;93.90
73106;BME280;61559;50.476;15.588;2024-02-21T06:52:23;98069.61;;;4.04;93.95
73106;BME280;61559;50.476;15.588;2024-02-21T06:54:55;98077.02;;;4.08;93.82
73106;BME280;61559;50.476;15.588;2024-02-21T06:57:26;98073.09;;;4.09;93.79
73106;BME280;61559;50.476;15.588;2024-02-21T06:59:57;98073.11;;;4.11;93.77
73106;BME280;61559;50.476;15.588;2024-02-21T07:02:28;98069.65;;;4.14;93.77
73106;BME280;61559;50.476;15.588;2024-02-21T07:04:59;98067.77;;;4.17;93.80
73106;BME280;61559;50.476;15.588;2024-02-21T07:07:29;98062.52;;;4.20;93.79
73106;BME280;61559;50.476;15.588;2024-02-21T07:10:00;98063.45;;;4.23;93.84
73106;BME280;61559;50.476;15.588;2024-02-21T07:12:33;98068.52;;;4.27;93.82
73106;BME280;61559;50.476;15.588;2024-02-21T07:15:06;98065.98;;;4.31;93.87
73106;BME280;61559;50.476;15.588;2024-02-21T07:17:37;98069.59;;;4.35;93.94
73106;BME280;61559;50.476;15.588;2024-02-21T07:20:08;98072.20;;;4.40;93.77
73106;BME280;61559;50.476;15.588;2024-02-21T07:22:39;98074.24;;;4.43;93.99
73106;BME280;61559;50.476;15.588;2024-02-21T07:25:10;98078.80;;;4.49;94.07
73106;BME280;61559;50.476;15.588;2024-02-21T07:27:41;98077.73;;;4.55;94.07
73106;BME280;61559;50.476;15.588;2024-02-21T07:30:13;98076.23;;;4.63;94.13
73106;BME280;61559;50.476;15.588;2024-02-21T07:32:46;98071.85;;;4.72;94.20
73106;BME280;61559;50.476;15.588;2024-02-21T07:35:20;98071.91;;;4.80;94.15
73106;BME280;61559;50.476;15.588;2024-02-21T07:37:51;98065.64;;;4.85;93.90
73106;BME280;61559;50.476;15.588;2024-02-21T07:40:21;98065.59;;;4.90;93.86
73106;BME280;61559;50.476;15.588;2024-02-21T07:42:52;98061.77;;;4.93;93.82
73106;BME280;61559;50.476;15.588;2024-02-21T07:45:23;98059.10;;;5.00;93.79
73106;BME280;61559;50.476;15.588;2024-02-21T07:47:52;98059.88;;;5.05;93.61
73106;BME280;61559;50.476;15.588;2024-02-21T07:50:24;98059.45;;;5.08;93.22
73106;BME280;61559;50.476;15.588;2024-02-21T07:52:54;98058.17;;;5.14;93.15
73106;BME280;61559;50.476;15.588;2024-02-21T07:55:25;98058.27;;;5.19;93.10
73106;BME280;61559;50.476;15.588;2024-02-21T07:57:54;98053.59;;;5.27;92.84
73106;BME280;61559;50.476;15.588;2024-02-21T08:00:25;98054.51;;;5.32;92.62
73106;BME280;61559;50.476;15.588;2024-02-21T08:02:57;98045.10;;;5.39;92.60
73106;BME280;61559;50.476;15.588;2024-02-21T08:05:26;98040.54;;;5.44;92.41
73106;BME280;61559;50.476;15.588;2024-02-21T08:07:59;98037.02;;;5.46;92.05
73106;BME280;61559;50.476;15.588;2024-02-21T08:10:29;98035.38;;;5.48;91.74
73106;BME280;61559;50.476;15.588;2024-02-21T08:13:01;98035.58;;;5.47;91.39
73106;BME280;61559;50.476;15.588;2024-02-21T08:15:32;98038.33;;;5.49;91.34
73106;BME280;61559;50.476;15.588;2024-02-21T08:18:03;98039.04;;;5.51;91.20
73106;BME280;61559;50.476;15.588;2024-02-21T08:20:35;98044.15;;;5.51;91.05
73106;BME280;61559;50.476;15.588;2024-02-21T08:23:06;98045.73;;;5.51;91.08
73106;BME280;61559;50.476;15.588;2024-02-21T08:25:37;98044.05;;;5.50;91.16
73106;BME280;61559;50.476;15.588;2024-02-21T08:28:08;98041.39;;;5.51;91.23
73106;BME280;61559;50.476;15.588;2024-02-21T08:30:39;98037.00;;;5.52;91.03
73106;BME280;61559;50.476;15.588;2024-02-21T08:33:14;98034.43;;;5.56;91.19
73106;BME280;61559;50.476;15.588;2024-02-21T08:35:46;98033.61;;;5.58;90.95
73106;BME280;61559;50.476;15.588;2024-02-21T08:38:16;98028.24;;;5.57;90.78
73106;BME280;61559;50.476;15.588;2024-02-21T08:40:47;98029.48;;;5.56;90.86
73106;BME280;61559;50.476;15.588;2024-02-21T08:43:19;98023.19;;;5.57;90.94
73106;BME280;61559;50.476;15.588;2024-02-21T08:45:49;98018.48;;;5.60;90.95
73106;BME280;61559;50.476;15.588;2024-02-21T08:48:20;98016.52;;;5.63;91.12
73106;BME280;61559;50.476;15.588;2024-02-21T08:50:50;98013.70;;;5.69;90.98
73106;BME280;61559;50.476;15.588;2024-02-21T08:53:21;98014.30;;;5.71;90.94
73106;BME280;61559;50.476;15.588;2024-02-21T08:55:52;98018.94;;;5.75;90.78
73106;BME280;61559;50.476;15.588;2024-02-21T08:58:23;98021.33;;;5.79;90.75
73106;BME280;61559;50.476;15.588;2024-02-21T09:00:57;98024.52;;;5.84;90.98
73106;BME280;61559;50.476;15.588;2024-02-21T09:03:28;98022.62;;;5.86;90.59
73106;BME280;61559;50.476;15.588;2024-02-21T09:05:57;98024.84;;;5.90;90.65
73106;BME280;61559;50.476;15.588;2024-02-21T09:08:29;98018.54;;;5.94;90.61
73106;BME280;61559;50.476;15.588;2024-02-21T09:11:00;98017.64;;;5.99;90.68
73106;BME280;61559;50.476;15.588;2024-02-21T09:13:33;98022.40;;;6.06;90.72
73106;BME280;61559;50.476;15.588;2024-02-21T09:16:03;98018.05;;;6.14;90.80
73106;BME280;61559;50.476;15.588;2024-02-21T09:18:32;98017.70;;;6.21;91.00
73106;BME280;61559;50.476;15.588;2024-02-21T09:21:04;98016.16;;;6.33;91.02
73106;BME280;61559;50.476;15.588;2024-02-21T09:23:36;98008.47;;;6.42;90.15
73106;BME280;61559;50.476;15.588;2024-02-21T09:26:24;98010.30;;;6.50;89.65
73106;BME280;61559;50.476;15.588;2024-02-21T09:28:53;98010.40;;;6.59;89.65
73106;BME280;61559;50.476;15.588;2024-02-21T09:31:24;98016.89;;;6.68;89.57
73106;BME280;61559;50.476;15.588;2024-02-21T09:33:54;98022.36;;;6.76;89.21
73106;BME280;61559;50.476;15.588;2024-02-21T09:36:25;98025.33;;;6.82;88.91
73106;BME280;61559;50.476;15.588;2024-02-21T09:38:55;98024.90;;;6.84;88.51
73106;BME280;61559;50.476;15.588;2024-02-21T09:41:28;98020.74;;;6.85;88.45
73106;BME280;61559;50.476;15.588;2024-02-21T09:44:00;98018.79;;;6.93;88.43
73106;BME280;61559;50.476;15.588;2024-02-21T09:46:41;98016.09;;;6.99;87.94
73106;BME280;61559;50.476;15.588;2024-02-21T09:49:24;98016.46;;;7.05;87.48
73106;BME280;61559;50.476;15.588;2024-02-21T09:51:57;98010.69;;;7.08;87.54
73106;BME280;61559;50.476;15.588;2024-02-21T09:54:34;98007.40;;;7.09;87.37
73106;BME280;61559;50.476;15.588;2024-02-21T09:57:05;98007.73;;;7.12;86.91
73106;BME280;61559;50.476;15.588;2024-02-21T09:59:37;98001.84;;;7.12;86.67
73106;BME280;61559;50.476;15.588;2024-02-21T10:02:08;97996.02;;;7.11;86.78
73106;BME280;61559;50.476;15.588;2024-02-21T10:04:42;97988.88;;;7.13;86.83
73106;BME280;61559;50.476;15.588;2024-02-21T10:07:14;97989.25;;;7.16;87.11
73106;BME280;61559;50.476;15.588;2024-02-21T10:09:45;97988.80;;;7.21;86.96
73106;BME280;61559;50.476;15.588;2024-02-21T10:12:20;97983.24;;;7.23;86.56
73106;BME280;61559;50.476;15.588;2024-02-21T10:15:01;97983.48;;;7.19;85.01
73106;BME280;61559;50.476;15.588;2024-02-21T10:17:32;97977.22;;;7.10;84.44
73106;BME280;61559;50.476;15.588;2024-02-21T10:20:11;97973.16;;;7.06;85.32
73106;BME280;61559;50.476;15.588;2024-02-21T10:22:44;97969.85;;;7.09;86.08
73106;BME280;61559;50.476;15.588;2024-02-21T10:25:13;97963.45;;;7.10;85.43
73106;BME280;61559;50.476;15.588;2024-02-21T10:27:49;97959.33;;;7.07;85.58
73106;BME280;61559;50.476;15.588;2024-02-21T10:30:21;97958.76;;;7.07;85.44
73106;BME280;61559;50.476;15.588;2024-02-21T10:32:53;97958.16;;;7.11;85.41
73106;BME280;61559;50.476;15.588;2024-02-21T10:35:31;97963.95;;;7.15;85.36
73106;BME280;61559;50.476;15.588;2024-02-21T10:38:03;97966.61;;;7.22;85.48
73106;BME280;61559;50.476;15.588;2024-02-21T10:40:34;97967.46;;;7.23;84.97
73106;BME280;61559;50.476;15.588;2024-02-21T10:43:08;97960.36;;;7.21;84.56
73106;BME280;61559;50.476;15.588;2024-02-21T10:45:41;97961.82;;;7.19;84.61
73106;BME280;61559;50.476;15.588;2024-02-21T10:48:13;97965.23;;;7.16;84.25
73106;BME280;61559;50.476;15.588;2024-02-21T10:50:56;97963.29;;;7.16;84.23
73106;BME280;61559;50.476;15.588;2024-02-21T10:53:39;97960.52;;;7.16;84.23
73106;BME280;61559;50.476;15.588;2024-02-21T10:56:20;97959.39;;;7.15;83.91
73106;BME280;61559;50.476;15.588;2024-02-21T10:58:53;97949.95;;;7.13;83.53
73106;BME280;61559;50.476;15.588;2024-02-21T11:01:25;97942.45;;;7.15;83.72
73106;BME280;61559;50.476;15.588;2024-02-21T11:04:03;97941.31;;;7.20;84.15
73106;BME280;61559;50.476;15.588;2024-02-21T11:06:37;97936.36;;;7.28;83.80
73106;BME280;61559;50.476;15.588;2024-02-21T11:09:10;97936.85;;;7.30;83.18
73106;BME280;61559;50.476;15.588;2024-02-21T11:11:43;97934.04;;;7.29;82.96
73106;BME280;61559;50.476;15.588;2024-02-21T11:14:20;97934.21;;;7.32;83.39
73106;BME280;61559;50.476;15.588;2024-02-21T11:16:51;97928.09;;;7.39;83.04
73106;BME280;61559;50.476;15.588;2024-02-21T11:19:21;97922.20;;;7.43;83.03
73106;BME280;61559;50.476;15.588;2024-02-21T11:21:54;97916.81;;;7.43;82.41
73106;BME280;61559;50.476;15.588;2024-02-21T11:24:32;97918.62;;;7.46;82.84
73106;BME280;61559;50.476;15.588;2024-02-21T11:27:13;97915.15;;;7.50;82.28
73106;BME280;61559;50.476;15.588;2024-02-21T11:29:45;97908.21;;;7.51;82.00
73106;BME280;61559;50.476;15.588;2024-02-21T11:32:19;97908.05;;;7.52;81.15
73106;BME280;61559;50.476;15.588;2024-02-21T11:34:58;97903.39;;;7.55;81.35
73106;BME280;61559;50.476;15.588;2024-02-21T11:37:34;97905.21;;;7.61;81.29
